sensor_id;sensor_type;location;lat;lon;timestamp;P1;durP1;ratioP1;P2;durP2;ratioP2
52838;SDS011;39219;53.678;9.856;2022-11-15T00:00:01;52.60;;;24.33;;
52838;SDS011;39219;53.678;9.856;2022-11-15T00:02:28;51.67;;;22.75;;
52838;SDS011;39219;53.678;9.856;2022-11-15T00:04:54;52.13;;;23.65;;
52838;SDS011;39219;53.678;9.856;2022-11-15T00:07:20;50.78;;;24.05;;
52838;SDS011;39219;53.678;9.856;2022-11-15T00:09:48;57.33;;;24.98;;
52838;SDS011;39219;53.678;9.856;2022-11-15T00:12:15;52.55;;;23.33;;
52838;SDS011;39219;53.678;9.856;2022-11-15T00:14:41;48.95;;;23.55;;
52838;SDS011;39219;53.678;9.856;2022-11-15T00:17:08;51.63;;;24.42;;
52838;SDS011;39219;53.678;9.856;2022-11-15T00:19:34;51.78;;;23.40;;
52838;SDS011;39219;53.678;9.856;2022-11-15T00:22:00;51.45;;;23.15;;
52838;SDS011;39219;53.678;9.856;2022-11-15T00:24:27;54.70;;;24.92;;
52838;SDS011;39219;53.678;9.856;2022-11-15T00:26:55;53.58;;;23.70;;
52838;SDS011;39219;53.678;9.856;2022-11-15T00:29:21;48.55;;;23.05;;
52838;SDS011;39219;53.678;9.856;2022-11-15T00:31:48;48.55;;;22.67;;
52838;SDS011;39219;53.678;9.856;2022-11-15T00:34:14;51.90;;;22.60;;
52838;SDS011;39219;53.678;9.856;2022-11-15T00:36:40;56.38;;;23.23;;
52838;SDS011;39219;53.678;9.856;2022-11-15T00:39:07;53.45;;;23.45;;
52838;SDS011;39219;53.678;9.856;2022-11-15T00:41:33;53.25;;;23.88;;
52838;SDS011;39219;53.678;9.856;2022-11-15T00:44:01;56.58;;;25.23;;
52838;SDS011;39219;53.678;9.856;2022-11-15T00:46:28;58.45;;;24.80;;
52838;SDS011;39219;53.678;9.856;2022-11-15T00:48:54;55.72;;;24.67;;
52838;SDS011;39219;53.678;9.856;2022-11-15T00:51:21;56.55;;;25.58;;
52838;SDS011;39219;53.678;9.856;2022-11-15T00:53:47;52.10;;;25.33;;
52838;SDS011;39219;53.678;9.856;2022-11-15T00:56:14;52.50;;;24.25;;
52838;SDS011;39219;53.678;9.856;2022-11-15T00:58:40;53.97;;;24.98;;
52838;SDS011;39219;53.678;9.856;2022-11-15T01:01:09;50.75;;;23.08;;
52838;SDS011;39219;53.678;9.856;2022-11-15T01:03:37;50.75;;;24.05;;
52838;SDS011;39219;53.678;9.856;2022-11-15T01:06:05;55.70;;;24.98;;
52838;SDS011;39219;53.678;9.856;2022-11-15T01:08:32;51.22;;;23.88;;
52838;SDS011;39219;53.678;9.856;2022-11-15T01:11:02;51.38;;;23.92;;
52838;SDS011;39219;53.678;9.856;2022-11-15T01:13:30;47.75;;;23.25;;
52838;SDS011;39219;53.678;9.856;2022-11-15T01:15:57;53.35;;;24.10;;
52838;SDS011;39219;53.678;9.856;2022-11-15T01:18:25;51.03;;;23.63;;
52838;SDS011;39219;53.678;9.856;2022-11-15T01:20:52;46.20;;;22.50;;
52838;SDS011;39219;53.678;9.856;2022-11-15T01:23:18;46.80;;;22.30;;
52838;SDS011;39219;53.678;9.856;2022-11-15T01:25:45;45.92;;;22.10;;
52838;SDS011;39219;53.678;9.856;2022-11-15T01:28:11;47.03;;;22.33;;
52838;SDS011;39219;53.678;9.856;2022-11-15T01:30:38;42.47;;;21.30;;
52838;SDS011;39219;53.678;9.856;2022-11-15T01:33:04;45.78;;;22.15;;
52838;SDS011;39219;53.678;9.856;2022-11-15T01:35:32;45.35;;;21.98;;
52838;SDS011;39219;53.678;9.856;2022-11-15T01:37:58;45.97;;;22.27;;
52838;SDS011;39219;53.678;9.856;2022-11-15T01:40:25;41.15;;;21.40;;
52838;SDS011;39219;53.678;9.856;2022-11-15T01:42:51;48.38;;;22.70;;
52838;SDS011;39219;53.678;9.856;2022-11-15T01:45:18;45.78;;;21.48;;
52838;SDS011;39219;53.678;9.856;2022-11-15T01:47:45;49.92;;;22.67;;
52838;SDS011;39219;53.678;9.856;2022-11-15T01:50:14;44.15;;;21.45;;
52838;SDS011;39219;53.678;9.856;2022-11-15T01:52:44;44.42;;;22.17;;
52838;SDS011;39219;53.678;9.856;2022-11-15T01:55:13;46.00;;;22.27;;
52838;SDS011;39219;53.678;9.856;2022-11-15T01:57:42;46.95;;;22.38;;
52838;SDS011;39219;53.678;9.856;2022-11-15T02:00:12;43.50;;;21.60;;
52838;SDS011;39219;53.678;9.856;2022-11-15T02:02:39;44.20;;;21.05;;
52838;SDS011;39219;53.678;9.856;2022-11-15T02:05:06;46.05;;;21.15;;
52838;SDS011;39219;53.678;9.856;2022-11-15T02:07:34;47.17;;;21.45;;
52838;SDS011;39219;53.678;9.856;2022-11-15T02:10:04;44.45;;;21.38;;
52838;SDS011;39219;53.678;9.856;2022-11-15T02:12:35;45.72;;;21.77;;
52838;SDS011;39219;53.678;9.856;2022-11-15T02:15:02;47.80;;;22.65;;
52838;SDS011;39219;53.678;9.856;2022-11-15T02:17:33;47.72;;;21.65;;
52838;SDS011;39219;53.678;9.856;2022-11-15T02:20:25;45.72;;;21.88;;
52838;SDS011;39219;53.678;9.856;2022-11-15T02:23:31;42.97;;;20.10;;
52838;SDS011;39219;53.678;9.856;2022-11-15T02:26:24;44.63;;;20.63;;
52838;SDS011;39219;53.678;9.856;2022-11-15T02:29:07;41.80;;;20.85;;
52838;SDS011;39219;53.678;9.856;2022-11-15T02:31:39;40.70;;;20.30;;
52838;SDS011;39219;53.678;9.856;2022-11-15T02:34:11;44.28;;;21.08;;
52838;SDS011;39219;53.678;9.856;2022-11-15T02:36:49;40.83;;;19.05;;
52838;SDS011;39219;53.678;9.856;2022-11-15T02:39:27;46.03;;;21.27;;
52838;SDS011;39219;53.678;9.856;2022-11-15T02:42:02;47.28;;;22.48;;
52838;SDS011;39219;53.678;9.856;2022-11-15T02:44:53;45.45;;;21.60;;
52838;SDS011;39219;53.678;9.856;2022-11-15T02:47:24;45.47;;;20.45;;
52838;SDS011;39219;53.678;9.856;2022-11-15T02:49:57;43.75;;;21.67;;
52838;SDS011;39219;53.678;9.856;2022-11-15T02:52:25;45.67;;;20.48;;
52838;SDS011;39219;53.678;9.856;2022-11-15T02:54:52;49.47;;;22.75;;
52838;SDS011;39219;53.678;9.856;2022-11-15T02:57:20;45.88;;;21.33;;
52838;SDS011;39219;53.678;9.856;2022-11-15T03:00:03;46.65;;;22.13;;
52838;SDS011;39219;53.678;9.856;2022-11-15T03:02:36;46.65;;;22.02;;
52838;SDS011;39219;53.678;9.856;2022-11-15T03:05:19;51.47;;;22.30;;
52838;SDS011;39219;53.678;9.856;2022-11-15T03:07:52;47.45;;;21.80;;
52838;SDS011;39219;53.678;9.856;2022-11-15T03:10:24;45.78;;;21.65;;
52838;SDS011;39219;53.678;9.856;2022-11-15T03:12:55;44.47;;;20.92;;
52838;SDS011;39219;53.678;9.856;2022-11-15T03:15:26;43.63;;;20.00;;
52838;SDS011;39219;53.678;9.856;2022-11-15T03:17:58;40.38;;;19.23;;
52838;SDS011;39219;53.678;9.856;2022-11-15T03:20:27;46.28;;;20.65;;
52838;SDS011;39219;53.678;9.856;2022-11-15T03:22:55;43.47;;;20.25;;
52838;SDS011;39219;53.678;9.856;2022-11-15T03:25:27;46.75;;;21.85;;
52838;SDS011;39219;53.678;9.856;2022-11-15T03:27:55;45.83;;;22.08;;
52838;SDS011;39219;53.678;9.856;2022-11-15T03:30:24;46.70;;;21.20;;
52838;SDS011;39219;53.678;9.856;2022-11-15T03:32:52;48.70;;;22.75;;
52838;SDS011;39219;53.678;9.856;2022-11-15T03:35:24;50.53;;;22.63;;
52838;SDS011;39219;53.678;9.856;2022-11-15T03:37:54;48.33;;;21.63;;
52838;SDS011;39219;53.678;9.856;2022-11-15T03:40:25;48.45;;;22.00;;
52838;SDS011;39219;53.678;9.856;2022-11-15T03:42:57;49.58;;;21.95;;
52838;SDS011;39219;53.678;9.856;2022-11-15T03:45:31;45.10;;;21.20;;
52838;SDS011;39219;53.678;9.856;2022-11-15T03:48:02;46.38;;;20.95;;
52838;SDS011;39219;53.678;9.856;2022-11-15T03:50:37;46.97;;;21.33;;
52838;SDS011;39219;53.678;9.856;2022-11-15T03:53:04;45.58;;;21.00;;
52838;SDS011;39219;53.678;9.856;2022-11-15T03:55:31;48.00;;;21.77;;
52838;SDS011;39219;53.678;9.856;2022-11-15T03:57:59;47.35;;;22.67;;
52838;SDS011;39219;53.678;9.856;2022-11-15T04:00:27;44.38;;;21.05;;
52838;SDS011;39219;53.678;9.856;2022-11-15T04:02:54;46.75;;;21.00;;
52838;SDS011;39219;53.678;9.856;2022-11-15T04:05:20;46.42;;;20.92;;
52838;SDS011;39219;53.678;9.856;2022-11-15T04:07:48;48.72;;;21.75;;
52838;SDS011;39219;53.678;9.856;2022-11-15T04:10:15;45.75;;;19.70;;
52838;SDS011;39219;53.678;9.856;2022-11-15T04:12:42;44.35;;;20.40;;
52838;SDS011;39219;53.678;9.856;2022-11-15T04:15:12;41.88;;;19.58;;
52838;SDS011;39219;53.678;9.856;2022-11-15T04:17:41;46.42;;;21.15;;
52838;SDS011;39219;53.678;9.856;2022-11-15T04:20:10;44.33;;;20.90;;
52838;SDS011;39219;53.678;9.856;2022-11-15T04:22:58;41.08;;;20.33;;
52838;SDS011;39219;53.678;9.856;2022-11-15T04:25:44;45.50;;;20.38;;
52838;SDS011;39219;53.678;9.856;2022-11-15T04:28:11;45.25;;;21.45;;
52838;SDS011;39219;53.678;9.856;2022-11-15T04:30:38;43.00;;;20.02;;
52838;SDS011;39219;53.678;9.856;2022-11-15T04:33:04;44.78;;;20.50;;
52838;SDS011;39219;53.678;9.856;2022-11-15T04:35:31;45.42;;;20.30;;
52838;SDS011;39219;53.678;9.856;2022-11-15T04:37:59;46.97;;;21.58;;
52838;SDS011;39219;53.678;9.856;2022-11-15T04:40:25;46.00;;;21.58;;
52838;SDS011;39219;53.678;9.856;2022-11-15T04:42:51;43.22;;;20.05;;
52838;SDS011;39219;53.678;9.856;2022-11-15T04:45:18;44.35;;;21.08;;
52838;SDS011;39219;53.678;9.856;2022-11-15T04:47:45;41.63;;;20.63;;
52838;SDS011;39219;53.678;9.856;2022-11-15T04:50:12;43.33;;;20.40;;
52838;SDS011;39219;53.678;9.856;2022-11-15T04:52:39;47.75;;;21.67;;
52838;SDS011;39219;53.678;9.856;2022-11-15T04:55:08;45.58;;;20.52;;
52838;SDS011;39219;53.678;9.856;2022-11-15T04:57:35;43.45;;;21.20;;
52838;SDS011;39219;53.678;9.856;2022-11-15T05:00:02;44.20;;;21.00;;
52838;SDS011;39219;53.678;9.856;2022-11-15T05:02:30;43.47;;;20.65;;
52838;SDS011;39219;53.678;9.856;2022-11-15T05:05:11;42.45;;;20.33;;
52838;SDS011;39219;53.678;9.856;2022-11-15T05:07:37;45.42;;;20.67;;
52838;SDS011;39219;53.678;9.856;2022-11-15T05:10:04;46.60;;;20.13;;
52838;SDS011;39219;53.678;9.856;2022-11-15T05:12:32;43.60;;;21.02;;
52838;SDS011;39219;53.678;9.856;2022-11-15T05:14:59;46.72;;;20.25;;
52838;SDS011;39219;53.678;9.856;2022-11-15T05:17:25;42.40;;;20.58;;
52838;SDS011;39219;53.678;9.856;2022-11-15T05:19:51;41.15;;;19.60;;
52838;SDS011;39219;53.678;9.856;2022-11-15T05:22:18;42.50;;;20.25;;
52838;SDS011;39219;53.678;9.856;2022-11-15T05:24:44;41.60;;;19.65;;
52838;SDS011;39219;53.678;9.856;2022-11-15T05:27:11;40.13;;;19.38;;
52838;SDS011;39219;53.678;9.856;2022-11-15T05:29:39;40.40;;;19.55;;
52838;SDS011;39219;53.678;9.856;2022-11-15T05:32:05;40.90;;;19.80;;
52838;SDS011;39219;53.678;9.856;2022-11-15T05:34:34;37.90;;;19.27;;
52838;SDS011;39219;53.678;9.856;2022-11-15T05:37:01;45.30;;;20.83;;
52838;SDS011;39219;53.678;9.856;2022-11-15T05:39:27;38.55;;;19.02;;
52838;SDS011;39219;53.678;9.856;2022-11-15T05:41:54;41.63;;;19.90;;
52838;SDS011;39219;53.678;9.856;2022-11-15T05:44:25;42.17;;;19.33;;
52838;SDS011;39219;53.678;9.856;2022-11-15T05:46:54;38.92;;;19.17;;
52838;SDS011;39219;53.678;9.856;2022-11-15T05:49:22;39.65;;;18.65;;
52838;SDS011;39219;53.678;9.856;2022-11-15T05:51:51;37.28;;;18.05;;
52838;SDS011;39219;53.678;9.856;2022-11-15T05:54:19;35.83;;;18.10;;
52838;SDS011;39219;53.678;9.856;2022-11-15T05:56:47;39.03;;;18.23;;
52838;SDS011;39219;53.678;9.856;2022-11-15T05:59:13;40.15;;;18.70;;
52838;SDS011;39219;53.678;9.856;2022-11-15T06:01:40;40.58;;;18.40;;
52838;SDS011;39219;53.678;9.856;2022-11-15T06:04:08;34.65;;;18.05;;
52838;SDS011;39219;53.678;9.856;2022-11-15T06:06:34;36.60;;;17.80;;
52838;SDS011;39219;53.678;9.856;2022-11-15T06:09:01;38.13;;;18.38;;
52838;SDS011;39219;53.678;9.856;2022-11-15T06:11:27;35.53;;;17.48;;
52838;SDS011;39219;53.678;9.856;2022-11-15T06:14:03;34.10;;;17.27;;
52838;SDS011;39219;53.678;9.856;2022-11-15T06:16:29;41.55;;;18.90;;
52838;SDS011;39219;53.678;9.856;2022-11-15T06:18:56;33.83;;;18.02;;
52838;SDS011;39219;53.678;9.856;2022-11-15T06:21:24;32.90;;;16.95;;
52838;SDS011;39219;53.678;9.856;2022-11-15T06:23:52;34.08;;;17.55;;
52838;SDS011;39219;53.678;9.856;2022-11-15T06:26:19;34.83;;;17.38;;
52838;SDS011;39219;53.678;9.856;2022-11-15T06:28:45;34.03;;;17.38;;
52838;SDS011;39219;53.678;9.856;2022-11-15T06:31:12;33.95;;;16.75;;
52838;SDS011;39219;53.678;9.856;2022-11-15T06:33:38;35.30;;;16.55;;
52838;SDS011;39219;53.678;9.856;2022-11-15T06:36:06;35.28;;;16.75;;
52838;SDS011;39219;53.678;9.856;2022-11-15T06:38:36;32.33;;;16.40;;
52838;SDS011;39219;53.678;9.856;2022-11-15T06:41:03;31.65;;;16.75;;
52838;SDS011;39219;53.678;9.856;2022-11-15T06:43:30;33.03;;;16.55;;
52838;SDS011;39219;53.678;9.856;2022-11-15T06:45:57;35.28;;;17.58;;
52838;SDS011;39219;53.678;9.856;2022-11-15T06:48:24;30.90;;;15.43;;
52838;SDS011;39219;53.678;9.856;2022-11-15T06:50:50;32.22;;;15.68;;
52838;SDS011;39219;53.678;9.856;2022-11-15T06:53:17;33.47;;;17.20;;
52838;SDS011;39219;53.678;9.856;2022-11-15T06:55:45;34.08;;;16.80;;
52838;SDS011;39219;53.678;9.856;2022-11-15T06:58:12;34.33;;;17.00;;
52838;SDS011;39219;53.678;9.856;2022-11-15T07:00:38;31.80;;;15.80;;
52838;SDS011;39219;53.678;9.856;2022-11-15T07:03:05;28.98;;;15.93;;
52838;SDS011;39219;53.678;9.856;2022-11-15T07:05:32;30.67;;;15.52;;
52838;SDS011;39219;53.678;9.856;2022-11-15T07:07:58;28.88;;;15.57;;
52838;SDS011;39219;53.678;9.856;2022-11-15T07:10:26;30.63;;;16.08;;
52838;SDS011;39219;53.678;9.856;2022-11-15T07:12:55;28.70;;;15.20;;
52838;SDS011;39219;53.678;9.856;2022-11-15T07:15:24;32.92;;;16.23;;
52838;SDS011;39219;53.678;9.856;2022-11-15T07:17:51;31.05;;;16.13;;
52838;SDS011;39219;53.678;9.856;2022-11-15T07:20:18;32.38;;;16.67;;
52838;SDS011;39219;53.678;9.856;2022-11-15T07:22:44;30.15;;;15.48;;
52838;SDS011;39219;53.678;9.856;2022-11-15T07:25:11;33.03;;;15.75;;
52838;SDS011;39219;53.678;9.856;2022-11-15T07:27:38;29.52;;;15.80;;
52838;SDS011;39219;53.678;9.856;2022-11-15T07:30:06;31.50;;;15.20;;
52838;SDS011;39219;53.678;9.856;2022-11-15T07:32:34;32.65;;;16.00;;
52838;SDS011;39219;53.678;9.856;2022-11-15T07:35:00;29.55;;;15.68;;
52838;SDS011;39219;53.678;9.856;2022-11-15T07:37:26;30.17;;;15.43;;
52838;SDS011;39219;53.678;9.856;2022-11-15T07:39:53;30.17;;;15.07;;
52838;SDS011;39219;53.678;9.856;2022-11-15T07:42:19;30.48;;;15.20;;
52838;SDS011;39219;53.678;9.856;2022-11-15T07:45:03;28.77;;;15.48;;
52838;SDS011;39219;53.678;9.856;2022-11-15T07:47:32;30.88;;;15.38;;
52838;SDS011;39219;53.678;9.856;2022-11-15T07:49:58;30.83;;;15.93;;
52838;SDS011;39219;53.678;9.856;2022-11-15T07:52:25;29.70;;;15.40;;
52838;SDS011;39219;53.678;9.856;2022-11-15T07:54:51;36.30;;;15.88;;
52838;SDS011;39219;53.678;9.856;2022-11-15T07:57:18;35.53;;;16.00;;
52838;SDS011;39219;53.678;9.856;2022-11-15T07:59:44;28.80;;;15.65;;
52838;SDS011;39219;53.678;9.856;2022-11-15T08:02:12;29.48;;;15.50;;
52838;SDS011;39219;53.678;9.856;2022-11-15T08:04:41;30.38;;;15.85;;
52838;SDS011;39219;53.678;9.856;2022-11-15T08:07:08;30.02;;;15.60;;
52838;SDS011;39219;53.678;9.856;2022-11-15T08:09:35;27.65;;;16.00;;
52838;SDS011;39219;53.678;9.856;2022-11-15T08:12:01;28.73;;;15.50;;
52838;SDS011;39219;53.678;9.856;2022-11-15T08:14:28;29.88;;;15.73;;
52838;SDS011;39219;53.678;9.856;2022-11-15T08:16:54;28.90;;;15.93;;
52838;SDS011;39219;53.678;9.856;2022-11-15T08:19:22;32.30;;;15.75;;
52838;SDS011;39219;53.678;9.856;2022-11-15T08:21:49;28.90;;;15.85;;
52838;SDS011;39219;53.678;9.856;2022-11-15T08:24:15;30.38;;;15.90;;
52838;SDS011;39219;53.678;9.856;2022-11-15T08:26:42;31.90;;;16.30;;
52838;SDS011;39219;53.678;9.856;2022-11-15T08:29:08;31.33;;;15.50;;
52838;SDS011;39219;53.678;9.856;2022-11-15T08:31:35;29.58;;;15.45;;
52838;SDS011;39219;53.678;9.856;2022-11-15T08:34:02;30.92;;;16.02;;
52838;SDS011;39219;53.678;9.856;2022-11-15T08:36:30;26.45;;;14.90;;
52838;SDS011;39219;53.678;9.856;2022-11-15T08:38:57;29.02;;;16.20;;
52838;SDS011;39219;53.678;9.856;2022-11-15T08:41:24;28.77;;;15.25;;
52838;SDS011;39219;53.678;9.856;2022-11-15T08:43:52;30.15;;;16.00;;
52838;SDS011;39219;53.678;9.856;2022-11-15T08:46:19;28.42;;;16.08;;
52838;SDS011;39219;53.678;9.856;2022-11-15T08:48:45;28.08;;;15.52;;
52838;SDS011;39219;53.678;9.856;2022-11-15T08:51:12;29.48;;;15.20;;
52838;SDS011;39219;53.678;9.856;2022-11-15T08:53:40;29.23;;;15.98;;
52838;SDS011;39219;53.678;9.856;2022-11-15T08:56:07;29.75;;;15.00;;
52838;SDS011;39219;53.678;9.856;2022-11-15T08:58:34;29.75;;;14.80;;
52838;SDS011;39219;53.678;9.856;2022-11-15T09:01:01;28.95;;;15.80;;
52838;SDS011;39219;53.678;9.856;2022-11-15T09:03:27;29.63;;;15.07;;
52838;SDS011;39219;53.678;9.856;2022-11-15T09:05:54;30.10;;;15.25;;
52838;SDS011;39219;53.678;9.856;2022-11-15T09:08:22;29.05;;;15.55;;
52838;SDS011;39219;53.678;9.856;2022-11-15T09:10:50;28.55;;;15.32;;
52838;SDS011;39219;53.678;9.856;2022-11-15T09:13:16;28.70;;;15.45;;
52838;SDS011;39219;53.678;9.856;2022-11-15T09:15:43;28.02;;;15.00;;
52838;SDS011;39219;53.678;9.856;2022-11-15T09:18:09;28.50;;;14.85;;
52838;SDS011;39219;53.678;9.856;2022-11-15T09:20:35;25.10;;;14.43;;
52838;SDS011;39219;53.678;9.856;2022-11-15T09:23:02;25.83;;;14.48;;
52838;SDS011;39219;53.678;9.856;2022-11-15T09:25:29;29.85;;;15.13;;
52838;SDS011;39219;53.678;9.856;2022-11-15T09:27:57;27.67;;;15.13;;
52838;SDS011;39219;53.678;9.856;2022-11-15T09:30:24;29.92;;;15.70;;
52838;SDS011;39219;53.678;9.856;2022-11-15T09:32:51;26.23;;;15.13;;
52838;SDS011;39219;53.678;9.856;2022-11-15T09:35:17;28.58;;;14.63;;
52838;SDS011;39219;53.678;9.856;2022-11-15T09:37:44;29.35;;;15.27;;
52838;SDS011;39219;53.678;9.856;2022-11-15T09:40:11;27.90;;;14.80;;
52838;SDS011;39219;53.678;9.856;2022-11-15T09:42:53;25.45;;;14.15;;
52838;SDS011;39219;53.678;9.856;2022-11-15T09:45:30;28.63;;;14.40;;
52838;SDS011;39219;53.678;9.856;2022-11-15T09:53:39;25.33;;;13.82;;
52838;SDS011;39219;53.678;9.856;2022-11-15T09:56:13;27.70;;;14.77;;
52838;SDS011;39219;53.678;9.856;2022-11-15T09:58:46;27.25;;;13.98;;
52838;SDS011;39219;53.678;9.856;2022-11-15T10:01:24;27.40;;;14.15;;
52838;SDS011;39219;53.678;9.856;2022-11-15T10:04:02;26.75;;;14.07;;
52838;SDS011;39219;53.678;9.856;2022-11-15T10:06:29;24.83;;;14.20;;
52838;SDS011;39219;53.678;9.856;2022-11-15T10:09:00;24.55;;;13.57;;
52838;SDS011;39219;53.678;9.856;2022-11-15T10:11:31;26.48;;;14.43;;
52838;SDS011;39219;53.678;9.856;2022-11-15T10:14:00;25.67;;;13.60;;
52838;SDS011;39219;53.678;9.856;2022-11-15T10:19:25;27.00;;;14.35;;
52838;SDS011;39219;53.678;9.856;2022-11-15T10:22:00;24.42;;;14.00;;
52838;SDS011;39219;53.678;9.856;2022-11-15T10:24:39;26.35;;;13.80;;
52838;SDS011;39219;53.678;9.856;2022-11-15T10:27:09;27.20;;;14.13;;
52838;SDS011;39219;53.678;9.856;2022-11-15T10:29:43;22.98;;;13.77;;
52838;SDS011;39219;53.678;9.856;2022-11-15T10:32:11;21.30;;;12.85;;
52838;SDS011;39219;53.678;9.856;2022-11-15T10:34:37;24.55;;;13.73;;
52838;SDS011;39219;53.678;9.856;2022-11-15T10:37:04;24.60;;;13.65;;
52838;SDS011;39219;53.678;9.856;2022-11-15T10:39:30;23.80;;;13.43;;
52838;SDS011;39219;53.678;9.856;2022-11-15T10:41:58;25.60;;;13.25;;
52838;SDS011;39219;53.678;9.856;2022-11-15T10:44:44;21.27;;;12.70;;
52838;SDS011;39219;53.678;9.856;2022-11-15T10:50:03;25.83;;;13.45;;
52838;SDS011;39219;53.678;9.856;2022-11-15T10:52:33;24.38;;;12.95;;
52838;SDS011;39219;53.678;9.856;2022-11-15T10:55:03;23.20;;;12.43;;
52838;SDS011;39219;53.678;9.856;2022-11-15T10:57:48;24.95;;;12.95;;
52838;SDS011;39219;53.678;9.856;2022-11-15T11:00:27;24.15;;;13.07;;
52838;SDS011;39219;53.678;9.856;2022-11-15T11:02:57;24.58;;;13.63;;
52838;SDS011;39219;53.678;9.856;2022-11-15T11:05:26;23.92;;;12.57;;
52838;SDS011;39219;53.678;9.856;2022-11-15T11:07:56;24.48;;;12.23;;
52838;SDS011;39219;53.678;9.856;2022-11-15T11:10:23;24.75;;;13.13;;
52838;SDS011;39219;53.678;9.856;2022-11-15T11:12:50;24.55;;;13.27;;
52838;SDS011;39219;53.678;9.856;2022-11-15T11:15:16;24.02;;;13.13;;
52838;SDS011;39219;53.678;9.856;2022-11-15T11:17:49;24.77;;;13.25;;
52838;SDS011;39219;53.678;9.856;2022-11-15T11:20:24;22.05;;;12.65;;
52838;SDS011;39219;53.678;9.856;2022-11-15T11:23:02;22.10;;;12.55;;
52838;SDS011;39219;53.678;9.856;2022-11-15T11:25:46;22.63;;;12.70;;
52838;SDS011;39219;53.678;9.856;2022-11-15T11:28:24;22.73;;;13.02;;
52838;SDS011;39219;53.678;9.856;2022-11-15T11:31:02;22.30;;;12.45;;
52838;SDS011;39219;53.678;9.856;2022-11-15T11:33:42;21.70;;;12.70;;
52838;SDS011;39219;53.678;9.856;2022-11-15T11:36:18;22.67;;;12.65;;
52838;SDS011;39219;53.678;9.856;2022-11-15T11:38:59;21.75;;;12.73;;
52838;SDS011;39219;53.678;9.856;2022-11-15T11:41:42;22.20;;;12.35;;
52838;SDS011;39219;53.678;9.856;2022-11-15T11:44:18;23.00;;;12.80;;
52838;SDS011;39219;53.678;9.856;2022-11-15T11:46:55;22.48;;;12.77;;
52838;SDS011;39219;53.678;9.856;2022-11-15T11:49:28;19.50;;;11.90;;
52838;SDS011;39219;53.678;9.856;2022-11-15T11:52:02;21.52;;;12.35;;
52838;SDS011;39219;53.678;9.856;2022-11-15T11:54:39;19.67;;;11.35;;
52838;SDS011;39219;53.678;9.856;2022-11-15T11:57:15;19.88;;;11.45;;
52838;SDS011;39219;53.678;9.856;2022-11-15T11:59:48;23.17;;;12.15;;
52838;SDS011;39219;53.678;9.856;2022-11-15T12:02:20;20.58;;;11.80;;
52838;SDS011;39219;53.678;9.856;2022-11-15T12:07:27;22.45;;;11.65;;
52838;SDS011;39219;53.678;9.856;2022-11-15T12:09:58;21.10;;;11.50;;
52838;SDS011;39219;53.678;9.856;2022-11-15T12:12:31;20.52;;;11.27;;
52838;SDS011;39219;53.678;9.856;2022-11-15T12:15:03;20.80;;;11.05;;
52838;SDS011;39219;53.678;9.856;2022-11-15T12:17:39;19.30;;;10.90;;
52838;SDS011;39219;53.678;9.856;2022-11-15T12:20:14;18.85;;;11.40;;
52838;SDS011;39219;53.678;9.856;2022-11-15T12:22:43;19.05;;;10.18;;
52838;SDS011;39219;53.678;9.856;2022-11-15T12:25:14;18.65;;;10.82;;
52838;SDS011;39219;53.678;9.856;2022-11-15T12:27:46;19.88;;;10.85;;
52838;SDS011;39219;53.678;9.856;2022-11-15T12:30:17;21.02;;;10.90;;
52838;SDS011;39219;53.678;9.856;2022-11-15T12:32:50;18.73;;;9.82;;
52838;SDS011;39219;53.678;9.856;2022-11-15T12:35:32;18.63;;;9.93;;
52838;SDS011;39219;53.678;9.856;2022-11-15T12:38:01;17.73;;;10.27;;
52838;SDS011;39219;53.678;9.856;2022-11-15T12:40:29;17.27;;;9.40;;
52838;SDS011;39219;53.678;9.856;2022-11-15T12:43:02;17.85;;;9.60;;
52838;SDS011;39219;53.678;9.856;2022-11-15T12:45:56;16.25;;;9.80;;
52838;SDS011;39219;53.678;9.856;2022-11-15T13:05:56;15.18;;;8.40;;
52838;SDS011;39219;53.678;9.856;2022-11-15T13:08:35;14.55;;;8.20;;
52838;SDS011;39219;53.678;9.856;2022-11-15T13:17:25;17.40;;;8.27;;
52838;SDS011;39219;53.678;9.856;2022-11-15T13:20:16;13.52;;;8.10;;
52838;SDS011;39219;53.678;9.856;2022-11-15T13:22:48;17.27;;;8.45;;
52838;SDS011;39219;53.678;9.856;2022-11-15T13:25:25;15.05;;;8.02;;
52838;SDS011;39219;53.678;9.856;2022-11-15T13:27:58;15.40;;;8.48;;
52838;SDS011;39219;53.678;9.856;2022-11-15T13:30:29;13.98;;;8.65;;
52838;SDS011;39219;53.678;9.856;2022-11-15T13:32:57;16.08;;;9.02;;
52838;SDS011;39219;53.678;9.856;2022-11-15T13:35:32;16.25;;;8.40;;
52838;SDS011;39219;53.678;9.856;2022-11-15T13:38:03;17.58;;;8.80;;
52838;SDS011;39219;53.678;9.856;2022-11-15T13:40:34;14.45;;;7.55;;
52838;SDS011;39219;53.678;9.856;2022-11-15T13:43:12;16.00;;;8.95;;
52838;SDS011;39219;53.678;9.856;2022-11-15T13:46:04;16.25;;;8.90;;
52838;SDS011;39219;53.678;9.856;2022-11-15T13:48:32;15.73;;;8.55;;
52838;SDS011;39219;53.678;9.856;2022-11-15T13:50:59;15.80;;;8.68;;
52838;SDS011;39219;53.678;9.856;2022-11-15T13:53:26;21.33;;;8.52;;
52838;SDS011;39219;53.678;9.856;2022-11-15T13:55:53;14.68;;;8.60;;
52838;SDS011;39219;53.678;9.856;2022-11-15T13:58:23;14.50;;;8.32;;
52838;SDS011;39219;53.678;9.856;2022-11-15T14:00:49;15.70;;;9.15;;
52838;SDS011;39219;53.678;9.856;2022-11-15T14:03:27;14.32;;;8.52;;
52838;SDS011;39219;53.678;9.856;2022-11-15T14:06:03;18.13;;;9.05;;
52838;SDS011;39219;53.678;9.856;2022-11-15T14:08:32;17.45;;;9.05;;
52838;SDS011;39219;53.678;9.856;2022-11-15T14:11:07;16.45;;;8.98;;
52838;SDS011;39219;53.678;9.856;2022-11-15T14:13:38;16.48;;;8.75;;
52838;SDS011;39219;53.678;9.856;2022-11-15T14:16:15;17.58;;;9.23;;
52838;SDS011;39219;53.678;9.856;2022-11-15T14:18:45;18.58;;;9.15;;
52838;SDS011;39219;53.678;9.856;2022-11-15T14:21:13;14.75;;;8.68;;
52838;SDS011;39219;53.678;9.856;2022-11-15T14:23:40;18.30;;;9.13;;
52838;SDS011;39219;53.678;9.856;2022-11-15T14:26:11;17.35;;;8.52;;
52838;SDS011;39219;53.678;9.856;2022-11-15T14:28:52;14.15;;;8.57;;
52838;SDS011;39219;53.678;9.856;2022-11-15T14:31:19;13.88;;;8.55;;
52838;SDS011;39219;53.678;9.856;2022-11-15T14:33:48;13.85;;;8.05;;
52838;SDS011;39219;53.678;9.856;2022-11-15T14:36:15;14.40;;;8.25;;
52838;SDS011;39219;53.678;9.856;2022-11-15T14:38:43;14.95;;;8.70;;
52838;SDS011;39219;53.678;9.856;2022-11-15T14:41:12;15.48;;;8.55;;
52838;SDS011;39219;53.678;9.856;2022-11-15T14:43:44;14.65;;;8.32;;
52838;SDS011;39219;53.678;9.856;2022-11-15T14:46:10;14.60;;;8.45;;
52838;SDS011;39219;53.678;9.856;2022-11-15T14:48:37;14.38;;;8.40;;
52838;SDS011;39219;53.678;9.856;2022-11-15T14:51:10;15.48;;;8.63;;
52838;SDS011;39219;53.678;9.856;2022-11-15T14:53:38;15.00;;;8.50;;
52838;SDS011;39219;53.678;9.856;2022-11-15T14:56:05;13.68;;;8.40;;
52838;SDS011;39219;53.678;9.856;2022-11-15T14:58:32;16.50;;;8.60;;
52838;SDS011;39219;53.678;9.856;2022-11-15T15:00:58;15.82;;;8.38;;
52838;SDS011;39219;53.678;9.856;2022-11-15T15:03:25;16.35;;;8.77;;
52838;SDS011;39219;53.678;9.856;2022-11-15T15:05:51;15.40;;;8.48;;
52838;SDS011;39219;53.678;9.856;2022-11-15T15:08:19;14.52;;;8.88;;
52838;SDS011;39219;53.678;9.856;2022-11-15T15:10:46;16.27;;;9.05;;
52838;SDS011;39219;53.678;9.856;2022-11-15T15:13:15;16.15;;;8.90;;
52838;SDS011;39219;53.678;9.856;2022-11-15T15:15:43;14.27;;;8.13;;